createdAt,value
2019-01-27T00:01:32.732Z,135.63
2019-01-27T00:04:02.764Z,172.93
2019-01-27T00:06:34.020Z,199.25
2019-01-27T00:09:05.854Z,173.15
2019-01-27T00:11:37.056Z,150.15
2019-01-27T00:14:08.212Z,119.82
2019-01-27T00:16:39.456Z,137.10
2019-01-27T00:19:10.671Z,131.75
2019-01-27T00:21:41.853Z,157.90
2019-01-27T00:24:13.056Z,165.97
2019-01-27T00:26:44.253Z,151.47
2019-01-27T00:29:15.732Z,123.33
2019-01-27T00:31:46.974Z,148.68
2019-01-27T00:34:18.176Z,185.95
2019-01-27T00:36:49.373Z,175.95
2019-01-27T00:39:21.302Z,174.40
2019-01-27T00:41:51.420Z,185.03
2019-01-27T00:44:22.663Z,105.75
2019-01-27T00:46:53.845Z,165.37
2019-01-27T00:49:25.061Z,170.30
2019-01-27T00:51:55.143Z,205.27
2019-01-27T00:54:25.943Z,187.00
2019-01-27T00:56:57.212Z,158.68
2019-01-27T00:59:28.410Z,117.47
2019-01-27T01:01:59.620Z,211.15
2019-01-27T01:04:30.821Z,115.97
2019-01-27T01:07:02.013Z,115.40
2019-01-27T01:09:32.104Z,195.35
2019-01-27T01:12:05.695Z,128.82
2019-01-27T01:14:36.893Z,160.93
2019-01-27T01:17:08.080Z,161.92
2019-01-27T01:19:38.233Z,97.60
2019-01-27T01:22:08.261Z,155.30
2019-01-27T01:24:39.573Z,203.52
2019-01-27T01:27:10.813Z,202.80
2019-01-27T01:29:42.012Z,179.07
2019-01-27T01:32:13.253Z,239.55
2019-01-27T01:34:44.413Z,217.57
2019-01-27T01:37:15.613Z,219.80
2019-01-27T01:39:46.822Z,219.93
2019-01-27T01:42:17.596Z,230.85
2019-01-27T01:44:48.821Z,240.95
2019-01-27T01:47:20.073Z,141.62
2019-01-27T01:49:51.333Z,222.48
2019-01-27T01:52:22.531Z,259.20
2019-01-27T01:54:52.711Z,251.77
2019-01-27T01:57:23.952Z,187.03
2019-01-27T01:59:55.172Z,209.43
2019-01-27T02:02:26.380Z,281.30
2019-01-27T02:04:57.633Z,221.32
2019-01-27T02:07:28.788Z,271.37
2019-01-27T02:09:59.973Z,291.55
2019-01-27T02:12:30.107Z,273.35
2019-01-27T02:15:01.334Z,247.10
2019-01-27T02:17:33.982Z,222.70
2019-01-27T02:20:04.103Z,274.55
2019-01-27T02:22:35.419Z,243.90
2019-01-27T02:25:06.823Z,228.22
2019-01-27T02:27:36.833Z,231.38
2019-01-27T02:30:09.293Z,207.65
2019-01-27T02:32:40.501Z,239.42
2019-01-27T02:35:11.904Z,168.82
2019-01-27T02:37:44.561Z,260.95
2019-01-27T02:40:15.684Z,269.40
2019-01-27T02:42:45.714Z,350.10
2019-01-27T02:45:25.988Z,266.15
2019-01-27T02:47:57.249Z,212.08
2019-01-27T02:50:27.276Z,189.75
2019-01-27T02:53:00.906Z,279.65
2019-01-27T02:55:32.084Z,191.60
2019-01-27T02:58:03.297Z,178.87
2019-01-27T03:00:35.128Z,323.57
2019-01-27T03:03:05.209Z,311.27
2019-01-27T03:05:36.887Z,297.27
2019-01-27T03:08:08.537Z,328.10
2019-01-27T03:10:40.502Z,408.95
2019-01-27T03:13:11.769Z,396.85
2019-01-27T03:15:41.809Z,423.02
2019-01-27T03:18:11.933Z,413.93
2019-01-27T03:20:43.130Z,377.45
2019-01-27T03:23:14.326Z,304.80
2019-01-27T03:25:44.956Z,426.73
2019-01-27T03:28:16.172Z,443.25
2019-01-27T03:30:47.410Z,456.93
2019-01-27T03:33:19.299Z,476.40
2019-01-27T03:35:50.489Z,463.03
2019-01-27T03:38:21.689Z,415.52
2019-01-27T03:40:55.244Z,386.32
2019-01-27T03:43:26.497Z,355.52
2019-01-27T03:45:57.889Z,301.27
2019-01-27T03:48:29.096Z,267.40
2019-01-27T03:51:00.288Z,265.10
2019-01-27T03:53:33.773Z,263.82
2019-01-27T03:56:03.836Z,259.87
2019-01-27T03:58:35.053Z,243.80
2019-01-27T04:01:05.252Z,363.32
2019-01-27T04:03:36.465Z,550.15
2019-01-27T04:06:07.808Z,555.95
2019-01-27T04:08:37.832Z,517.63
2019-01-27T04:11:07.328Z,539.83
2019-01-27T04:13:36.810Z,544.08
2019-01-27T04:16:06.852Z,488.87
2019-01-27T04:18:38.048Z,479.40
2019-01-27T04:21:09.288Z,452.62
2019-01-27T04:23:40.533Z,377.70
2019-01-27T04:26:11.729Z,346.60
2019-01-27T04:28:42.970Z,326.18
2019-01-27T04:31:14.168Z,247.65
2019-01-27T04:33:45.376Z,66.07
2019-01-27T04:36:16.497Z,210.30
2019-01-27T04:38:47.772Z,156.45
2019-01-27T04:41:18.982Z,94.80
2019-01-27T04:43:52.640Z,407.38
2019-01-27T04:46:22.718Z,345.77
2019-01-27T04:48:53.924Z,271.00
2019-01-27T04:51:25.209Z,327.38
2019-01-27T04:53:56.360Z,353.20
2019-01-27T04:56:27.608Z,313.40
2019-01-27T04:58:57.652Z,305.95
2019-01-27T05:01:28.877Z,333.15
2019-01-27T05:04:02.238Z,325.40
2019-01-27T05:06:33.456Z,341.08
2019-01-27T05:09:06.069Z,367.73
2019-01-27T05:11:37.276Z,404.98
2019-01-27T05:14:09.328Z,365.07
2019-01-27T05:16:40.572Z,356.60
2019-01-27T05:19:11.777Z,198.85
2019-01-27T05:21:42.969Z,240.35
2019-01-27T05:24:14.816Z,232.52
2019-01-27T05:26:46.016Z,268.57
2019-01-27T05:29:17.817Z,249.35
2019-01-27T05:31:47.848Z,181.07
2019-01-27T05:34:19.128Z,210.88
2019-01-27T05:36:50.331Z,126.05
2019-01-27T05:39:20.417Z,218.65
2019-01-27T05:41:51.618Z,252.28
2019-01-27T05:44:22.894Z,214.45
2019-01-27T05:46:54.084Z,261.02
2019-01-27T05:49:25.265Z,250.78
2019-01-27T05:51:56.489Z,240.68
2019-01-27T05:54:27.737Z,215.92
2019-01-27T05:57:04.927Z,210.13
2019-01-27T05:59:36.088Z,231.10
2019-01-27T06:02:06.108Z,224.82
2019-01-27T06:04:37.332Z,243.33
2019-01-27T06:07:08.572Z,251.95
2019-01-27T06:09:39.810Z,219.53
2019-01-27T06:12:11.032Z,179.90
2019-01-27T06:14:42.218Z,196.53
2019-01-27T06:17:13.409Z,152.70
2019-01-27T06:19:45.211Z,204.47
2019-01-27T06:22:16.456Z,184.00
2019-01-27T06:24:47.619Z,204.57
2019-01-27T06:27:18.809Z,195.03
2019-01-27T06:29:50.009Z,181.05
2019-01-27T06:32:29.491Z,173.97
2019-01-27T06:35:00.724Z,175.42
2019-01-27T06:37:34.172Z,164.25
2019-01-27T06:40:20.791Z,161.75
2019-01-27T06:42:52.004Z,110.03
2019-01-27T06:45:23.178Z,114.28
2019-01-27T06:47:56.724Z,165.73
2019-01-27T06:50:28.578Z,116.33
2019-01-27T06:53:00.408Z,131.72
2019-01-27T06:55:31.608Z,123.87
2019-01-27T06:58:01.656Z,151.93
2019-01-27T07:00:52.084Z,158.45
2019-01-27T07:03:27.412Z,119.70
2019-01-27T07:06:09.044Z,125.45
2019-01-27T07:08:43.373Z,60.70
2019-01-27T07:11:23.093Z,128.85
2019-01-27T07:14:04.539Z,131.90
2019-01-27T07:16:43.778Z,130.65
2019-01-27T07:19:25.727Z,119.20
2019-01-27T07:22:13.849Z,124.38
2019-01-27T07:24:49.437Z,96.90
2019-01-27T07:27:24.977Z,65.40
2019-01-27T07:29:57.777Z,93.40
2019-01-27T07:32:46.952Z,94.87
2019-01-27T07:35:25.335Z,96.20
2019-01-27T07:37:56.949Z,113.65
2019-01-27T07:40:35.220Z,86.60
2019-01-27T07:43:07.999Z,60.23
2019-01-27T07:45:49.762Z,71.25
2019-01-27T07:48:24.375Z,64.85
2019-01-27T07:51:08.890Z,114.12
2019-01-27T07:53:48.625Z,86.87
2019-01-27T07:56:24.050Z,56.30
2019-01-27T07:58:58.813Z,86.78
2019-01-27T08:01:30.557Z,78.62
2019-01-27T08:04:06.168Z,108.10
2019-01-27T08:06:55.988Z,98.45
2019-01-27T08:09:31.484Z,61.48
2019-01-27T08:12:16.153Z,90.30
2019-01-27T08:15:00.907Z,73.87
2019-01-27T08:17:36.329Z,92.37
2019-01-27T08:20:12.237Z,52.67
2019-01-27T08:22:46.411Z,70.05
2019-01-27T08:25:19.208Z,72.15
2019-01-27T08:27:51.989Z,58.92
2019-01-27T08:30:42.413Z,57.27
2019-01-27T08:33:20.745Z,75.95
2019-01-27T08:35:56.136Z,77.58
2019-01-27T08:38:44.917Z,103.22
2019-01-27T08:41:29.299Z,106.00
2019-01-27T08:44:02.189Z,112.92
2019-01-27T08:46:35.073Z,104.15
2019-01-27T08:49:06.281Z,102.80
2019-01-27T08:51:36.293Z,98.90
2019-01-27T08:54:07.930Z,96.50
2019-01-27T08:56:37.950Z,98.82
2019-01-27T08:59:11.572Z,99.22
2019-01-27T09:01:46.844Z,98.92
2019-01-27T09:04:32.092Z,106.52
2019-01-27T09:09:54.137Z,109.67
2019-01-27T09:12:42.813Z,106.20
2019-01-27T09:15:16.278Z,107.92
2019-01-27T09:17:49.089Z,111.17
2019-01-27T09:20:30.813Z,108.52
2019-01-27T09:23:19.657Z,83.35
2019-01-27T09:26:08.497Z,106.03
2019-01-27T09:28:41.308Z,80.35
2019-01-27T09:31:14.099Z,91.05
2019-01-27T09:34:01.553Z,85.38
2019-01-27T09:36:34.398Z,82.50
2019-01-27T09:39:07.229Z,70.42
2019-01-27T09:41:41.822Z,82.95
2019-01-27T09:44:17.348Z,111.32
2019-01-27T09:47:07.970Z,119.02
2019-01-27T09:49:56.689Z,111.22
2019-01-27T09:52:28.279Z,105.58
2019-01-27T09:55:12.342Z,109.25
2019-01-27T09:57:47.389Z,111.68
2019-01-27T10:00:21.938Z,110.85
2019-01-27T10:02:59.194Z,69.37
2019-01-27T10:05:34.174Z,99.85
2019-01-27T10:08:23.129Z,79.60
2019-01-27T10:11:01.347Z,81.65
2019-01-27T10:13:48.929Z,120.13
2019-01-27T10:16:33.757Z,118.22
2019-01-27T10:19:09.008Z,94.87
2019-01-27T10:21:50.749Z,106.55
2019-01-27T10:24:30.017Z,99.62
2019-01-27T10:27:05.812Z,126.75
2019-01-27T10:29:38.585Z,99.52
2019-01-27T10:32:11.369Z,118.25
2019-01-27T10:34:44.180Z,116.35
2019-01-27T10:37:15.798Z,103.00
2019-01-27T10:39:48.678Z,120.97
2019-01-27T10:46:15.963Z,107.47
2019-01-27T10:48:48.906Z,90.70
2019-01-27T10:51:21.995Z,88.58
2019-01-27T10:53:54.692Z,80.30
2019-01-27T10:56:30.228Z,107.87
2019-01-27T10:59:03.012Z,101.92
2019-01-27T11:01:53.395Z,108.90
2019-01-27T11:04:32.644Z,105.30
2019-01-27T11:07:05.281Z,94.85
2019-01-27T11:09:40.833Z,112.88
2019-01-27T11:12:12.435Z,123.40
2019-01-27T11:14:54.115Z,106.40
2019-01-27T11:17:29.194Z,102.80
2019-01-27T11:20:07.835Z,115.22
2019-01-27T11:22:52.639Z,117.70
2019-01-27T11:25:43.208Z,106.78
2019-01-27T11:28:15.872Z,94.50
2019-01-27T11:31:04.834Z,80.45
2019-01-27T11:37:15.244Z,84.55
2019-01-27T11:39:53.862Z,103.10
2019-01-27T11:42:35.718Z,70.22
2019-01-27T11:45:15.641Z,90.12
2019-01-27T11:47:48.366Z,80.12
2019-01-27T11:50:21.045Z,98.70
2019-01-27T11:52:53.793Z,99.00
2019-01-27T11:55:24.998Z,93.22
2019-01-27T11:57:56.441Z,101.18
2019-01-27T12:00:29.764Z,99.45
2019-01-27T12:03:00.995Z,76.57
2019-01-27T12:05:33.752Z,79.67
2019-01-27T12:08:03.954Z,88.47
2019-01-27T12:10:35.186Z,100.85
2019-01-27T12:13:06.453Z,65.28
2019-01-27T12:15:37.793Z,101.58
2019-01-27T12:18:08.675Z,91.75
2019-01-27T12:20:38.993Z,105.12
2019-01-27T12:23:09.033Z,72.87
2019-01-27T12:25:40.513Z,90.07
2019-01-27T12:28:10.793Z,38.95
2019-01-27T12:30:40.962Z,50.75
2019-01-27T12:33:12.363Z,86.42
2019-01-27T12:35:43.721Z,32.67
2019-01-27T12:38:13.793Z,75.85
2019-01-27T12:40:44.993Z,50.08
2019-01-27T12:43:17.594Z,68.40
2019-01-27T12:45:47.877Z,87.47
2019-01-27T12:48:19.353Z,60.95
2019-01-27T12:50:51.074Z,63.55
2019-01-27T12:53:22.413Z,103.55
2019-01-27T12:55:53.755Z,108.00
2019-01-27T12:58:28.032Z,103.83
2019-01-27T13:00:59.554Z,106.85
2019-01-27T13:03:29.237Z,101.65
2019-01-27T13:06:00.479Z,102.17
2019-01-27T13:08:30.721Z,117.10
2019-01-27T13:11:05.619Z,102.40
2019-01-27T13:13:35.113Z,95.42
2019-01-27T13:16:06.357Z,94.47
2019-01-27T13:18:36.487Z,56.85
2019-01-27T13:21:07.672Z,80.10
2019-01-27T13:23:39.156Z,45.20
2019-01-27T13:26:11.033Z,97.85
2019-01-27T13:28:42.437Z,55.55
2019-01-27T13:31:13.802Z,101.00
2019-01-27T13:33:45.080Z,85.87
2019-01-27T13:36:16.534Z,71.85
2019-01-27T13:38:51.195Z,84.62
2019-01-27T13:41:21.433Z,49.70
2019-01-27T13:43:52.593Z,58.48
2019-01-27T13:46:24.074Z,65.67
2019-01-27T13:48:55.402Z,84.50
2019-01-27T13:51:25.486Z,56.80
2019-01-27T13:53:56.760Z,95.30
2019-01-27T13:56:28.041Z,77.22
2019-01-27T13:58:58.875Z,92.45
2019-01-27T14:01:31.592Z,79.15
2019-01-27T14:04:02.393Z,67.58
2019-01-27T14:06:34.400Z,79.12
2019-01-27T14:09:05.920Z,71.35
2019-01-27T14:11:37.314Z,59.53
2019-01-27T14:14:08.832Z,67.92
2019-01-27T14:16:39.038Z,63.45
2019-01-27T14:19:10.472Z,68.30
2019-01-27T14:21:41.712Z,42.55
2019-01-27T14:24:13.121Z,85.45
2019-01-27T14:26:44.632Z,71.70
2019-01-27T14:29:16.001Z,83.50
2019-01-27T14:31:46.114Z,66.05
2019-01-27T14:34:17.445Z,61.13
2019-01-27T14:36:49.433Z,76.00
2019-01-27T14:39:20.842Z,78.50
2019-01-27T14:41:52.313Z,47.33
2019-01-27T14:44:23.683Z,51.85
2019-01-27T14:46:55.091Z,63.95
2019-01-27T14:49:25.915Z,72.47
2019-01-27T15:55:15.893Z,79.58
2019-01-27T15:57:47.262Z,76.05
2019-01-27T16:00:20.682Z,73.15
2019-01-27T16:06:35.470Z,58.02
2019-01-27T16:09:09.952Z,75.37
2019-01-27T16:11:42.911Z,66.47
2019-01-27T16:14:13.156Z,58.50
2019-01-27T16:16:43.342Z,49.73
2019-01-27T16:19:14.632Z,53.52
2019-01-27T16:21:44.867Z,66.72
2019-01-27T16:24:17.589Z,36.20
2019-01-27T16:26:48.796Z,29.52
2019-01-27T16:29:21.681Z,28.00
2019-01-27T16:31:54.508Z,33.10
2019-01-27T16:34:27.742Z,44.33
2019-01-27T16:36:58.952Z,32.75
2019-01-27T16:39:30.823Z,52.93
2019-01-27T16:42:00.995Z,53.08
2019-01-27T16:44:31.193Z,37.53
2019-01-27T16:47:02.472Z,53.02
2019-01-27T16:49:33.784Z,125.38
2019-01-27T16:52:05.104Z,32.00
2019-01-27T16:54:35.426Z,44.53
2019-01-27T16:57:06.711Z,38.65
2019-01-27T16:59:38.032Z,32.70
2019-01-27T17:02:09.310Z,28.65
2019-01-27T17:04:40.983Z,54.65
2019-01-27T17:07:12.153Z,29.15
2019-01-27T17:09:43.382Z,25.55
2019-01-27T17:12:14.143Z,46.05
2019-01-27T17:14:44.382Z,61.58
2019-01-27T17:17:15.702Z,51.15
2019-01-27T17:19:47.665Z,15.72
2019-01-27T17:22:18.902Z,20.82
2019-01-27T17:24:50.223Z,49.88
2019-01-27T17:27:21.662Z,28.45
2019-01-27T17:29:53.314Z,35.15
2019-01-27T17:32:24.743Z,33.23
2019-01-27T17:34:58.347Z,34.13
2019-01-27T17:37:32.453Z,43.40
2019-01-27T17:40:03.668Z,73.02
2019-01-27T17:42:35.071Z,32.90
2019-01-27T17:45:10.188Z,44.80
2019-01-27T17:47:41.383Z,69.42
2019-01-27T17:50:20.636Z,50.28
2019-01-27T17:52:52.925Z,79.22
2019-01-27T17:55:44.712Z,35.38
2019-01-27T17:58:35.632Z,46.55
2019-01-27T18:01:24.625Z,50.12
2019-01-27T18:04:03.265Z,44.50
2019-01-27T18:06:36.273Z,51.50
2019-01-27T18:09:28.425Z,45.80
2019-01-27T18:12:02.926Z,59.70
2019-01-27T18:14:41.494Z,68.97
2019-01-27T18:17:12.710Z,85.07
2019-01-27T18:19:45.173Z,90.00
2019-01-27T18:22:16.494Z,97.97
2019-01-27T18:24:47.855Z,97.55
2019-01-27T18:27:19.163Z,89.10
2019-01-27T18:29:50.325Z,74.15
2019-01-27T18:32:21.713Z,93.03
2019-01-27T18:34:54.493Z,90.28
2019-01-27T18:37:24.804Z,95.30
2019-01-27T18:39:54.383Z,90.57
2019-01-27T18:42:25.634Z,93.03
2019-01-27T18:44:55.842Z,97.40
2019-01-27T18:47:27.171Z,98.42
2019-01-27T18:49:59.242Z,93.37
2019-01-27T18:52:31.373Z,92.22
2019-01-27T18:55:04.147Z,80.57
2019-01-27T18:57:35.827Z,76.87
2019-01-27T19:00:11.587Z,79.75
2019-01-27T19:05:38.239Z,86.75
2019-01-27T19:08:11.116Z,78.10
2019-01-27T19:10:49.027Z,83.30
2019-01-27T19:13:21.786Z,76.75
2019-01-27T19:15:58.964Z,73.22
2019-01-27T19:18:31.867Z,76.75
2019-01-27T19:21:05.386Z,72.60
2019-01-27T19:23:38.790Z,72.30
2019-01-27T19:26:21.067Z,84.60
2019-01-27T19:29:08.564Z,52.75
2019-01-27T19:31:44.870Z,57.38
2019-01-27T19:34:17.668Z,41.60
2019-01-27T19:37:07.707Z,44.70
2019-01-27T19:39:40.435Z,29.52
2019-01-27T19:42:16.267Z,50.60
2019-01-27T19:44:49.108Z,83.03
2019-01-27T19:47:39.868Z,33.05
2019-01-27T19:50:14.038Z,51.18
2019-01-27T19:52:46.965Z,53.25
2019-01-27T19:55:28.436Z,70.50
2019-01-27T19:58:07.239Z,76.95
2019-01-27T20:00:42.790Z,72.37
2019-01-27T20:03:30.390Z,71.12
2019-01-27T20:06:09.434Z,73.65
2019-01-27T20:08:50.947Z,77.47
2019-01-27T20:11:35.827Z,61.37
2019-01-27T20:14:14.076Z,74.37
2019-01-27T20:17:02.930Z,70.90
2019-01-27T20:19:35.990Z,57.58
2019-01-27T20:22:17.189Z,73.72
2019-01-27T20:24:56.036Z,74.30
2019-01-27T20:27:33.756Z,74.03
2019-01-27T20:30:09.306Z,66.50
2019-01-27T20:32:42.707Z,70.15
2019-01-27T20:35:17.351Z,78.62
2019-01-27T20:37:53.270Z,73.72
2019-01-27T20:40:26.028Z,60.95
2019-01-27T20:43:08.038Z,73.67
2019-01-27T20:45:43.796Z,73.22
2019-01-27T20:48:19.387Z,66.47
2019-01-27T20:51:06.836Z,78.30
2019-01-27T20:53:40.746Z,64.30
2019-01-27T20:56:12.426Z,74.62
2019-01-27T20:59:01.431Z,39.73
2019-01-27T21:01:37.187Z,39.18
2019-01-27T21:04:18.867Z,74.53
2019-01-27T21:06:51.710Z,43.75
2019-01-27T21:09:27.276Z,47.83
2019-01-27T21:12:05.798Z,66.80
2019-01-27T21:14:38.675Z,68.02
2019-01-27T21:17:18.880Z,67.45
2019-01-27T21:19:50.595Z,57.15
2019-01-27T21:22:21.906Z,82.27
2019-01-27T21:24:53.276Z,68.10
2019-01-27T21:27:24.548Z,45.50
2019-01-27T21:29:54.066Z,82.97
2019-01-27T21:32:25.547Z,77.03
2019-01-27T21:34:56.741Z,45.15
2019-01-27T21:37:28.747Z,66.97
2019-01-27T21:40:00.255Z,71.75
2019-01-27T21:42:31.506Z,71.02
2019-01-27T21:45:02.747Z,76.00
2019-01-27T21:47:32.706Z,80.32
2019-01-27T21:50:03.914Z,61.18
2019-01-27T21:52:35.092Z,61.23
2019-01-27T21:55:07.247Z,82.97
2019-01-27T21:57:38.468Z,85.00
2019-01-27T22:00:18.627Z,78.37
2019-01-27T22:02:49.908Z,73.35
2019-01-27T22:05:19.873Z,67.97
2019-01-27T22:07:50.947Z,72.50
2019-01-27T22:10:22.123Z,68.72
2019-01-27T22:12:52.000Z,68.35
2019-01-27T22:15:23.237Z,69.15
2019-01-27T22:17:53.274Z,68.57
2019-01-27T22:20:23.267Z,70.70
2019-01-27T22:22:54.467Z,59.27
2019-01-27T22:25:25.466Z,58.35
2019-01-27T22:27:56.472Z,58.48
2019-01-27T22:30:26.476Z,58.92
2019-01-27T22:32:57.549Z,60.92
2019-01-27T22:35:28.628Z,62.67
2019-01-27T22:37:59.594Z,61.00
2019-01-27T22:40:30.594Z,61.70
2019-01-27T22:43:01.586Z,62.90
2019-01-27T22:45:32.596Z,59.63
2019-01-27T22:48:02.508Z,68.37
2019-01-27T22:50:32.386Z,60.83
2019-01-27T22:53:03.718Z,69.10
2019-01-27T22:55:35.437Z,63.40
2019-01-27T22:58:06.538Z,69.12
2019-01-27T23:00:42.108Z,67.27
2019-01-27T23:03:13.035Z,61.90
2019-01-27T23:05:43.947Z,70.15
2019-01-27T23:08:14.987Z,71.50
2019-01-27T23:10:44.914Z,71.10
2019-01-27T23:13:14.917Z,67.55
2019-01-27T23:15:48.427Z,70.03
2019-01-27T23:18:19.476Z,65.65
2019-01-27T23:20:50.434Z,65.28
2019-01-27T23:23:20.347Z,73.45
2019-01-27T23:25:50.523Z,65.92
2019-01-27T23:28:22.427Z,62.95
2019-01-27T23:30:52.346Z,69.37
2019-01-27T23:33:23.346Z,63.05
2019-01-27T23:35:54.307Z,61.95
2019-01-27T23:38:25.314Z,60.55
2019-01-27T23:40:56.269Z,54.48
2019-01-27T23:43:26.242Z,47.83
2019-01-27T23:45:57.900Z,49.63
2019-01-27T23:48:28.867Z,53.48
2019-01-27T23:50:59.907Z,57.38
2019-01-27T23:53:29.954Z,53.92
2019-01-27T23:56:01.028Z,46.40
2019-01-27T23:58:32.027Z,56.35
